createdAt,value
2018-04-13T00:01:47.717Z,219.80
2018-04-13T00:04:15.241Z,216.97
2018-04-13T00:06:43.547Z,219.20
2018-04-13T00:09:17.359Z,206.13
2018-04-13T00:11:44.890Z,211.10
2018-04-13T00:14:13.192Z,175.07
2018-04-13T00:16:40.763Z,158.03
2018-04-13T00:19:14.162Z,168.63
2018-04-13T00:21:47.603Z,185.30
2018-04-13T00:24:15.956Z,184.80
2018-04-13T00:26:43.605Z,189.27
2018-04-13T00:29:17.170Z,196.60
2018-04-13T00:31:44.740Z,217.37
2018-04-13T00:34:23.888Z,182.37
2018-04-13T00:36:57.297Z,164.57
2018-04-13T00:39:24.865Z,164.60
2018-04-13T00:41:53.205Z,160.63
2018-04-13T00:44:20.736Z,149.03
2018-04-13T00:46:49.369Z,170.00
2018-04-13T00:49:16.912Z,169.80
2018-04-13T00:51:50.166Z,207.77
2018-04-13T00:54:19.089Z,199.87
2018-04-13T00:56:52.504Z,185.90
2018-04-13T00:59:20.979Z,164.47
2018-04-13T01:01:48.517Z,161.63
2018-04-13T01:04:16.058Z,151.23
2018-04-13T01:06:49.240Z,146.10
2018-04-13T01:09:23.700Z,140.53
2018-04-13T01:11:56.922Z,149.70
2018-04-13T01:14:24.492Z,168.87
2018-04-13T01:16:52.097Z,185.33
2018-04-13T01:19:19.610Z,205.83
2018-04-13T01:21:47.180Z,238.03
2018-04-13T01:24:15.472Z,257.17
2018-04-13T01:26:48.987Z,261.60
2018-04-13T01:29:16.524Z,287.13
2018-04-13T01:31:44.050Z,255.37
2018-04-13T01:34:11.661Z,226.13
2018-04-13T01:36:39.181Z,219.47
2018-04-13T01:39:13.447Z,181.33
2018-04-13T01:41:40.996Z,168.50
2018-04-13T01:44:20.273Z,176.70
2018-04-13T01:46:49.340Z,166.73
2018-04-13T01:49:16.878Z,175.23
2018-04-13T01:51:44.435Z,198.87
2018-04-13T01:54:11.957Z,223.13
2018-04-13T01:56:40.288Z,232.23
2018-04-13T01:59:13.644Z,218.37
2018-04-13T02:01:47.552Z,222.77
2018-04-13T02:04:15.875Z,243.67
2018-04-13T02:06:43.426Z,239.27
2018-04-13T02:09:10.955Z,205.77
2018-04-13T02:11:38.523Z,192.87
2018-04-13T02:14:11.666Z,177.87
2018-04-13T02:16:39.243Z,175.20
2018-04-13T02:19:07.552Z,168.50
2018-04-13T02:21:41.270Z,181.90
2018-04-13T02:24:14.498Z,207.87
2018-04-13T02:26:42.049Z,227.87
2018-04-13T02:29:09.568Z,249.33
2018-04-13T02:31:37.087Z,280.13
2018-04-13T02:34:11.226Z,296.63
2018-04-13T02:36:44.739Z,339.67
2018-04-13T02:39:12.406Z,355.47
2018-04-13T02:41:39.953Z,329.13
2018-04-13T02:44:07.472Z,340.90
2018-04-13T02:46:35.797Z,351.10
2018-04-13T02:49:03.322Z,343.57
2018-04-13T02:51:31.623Z,345.10
2018-04-13T02:53:59.186Z,349.87
2018-04-13T02:56:32.879Z,317.60
2018-04-13T02:59:00.430Z,310.70
2018-04-13T03:01:33.716Z,306.63
2018-04-13T03:04:01.288Z,298.93
2018-04-13T03:06:34.994Z,265.57
2018-04-13T03:09:02.840Z,246.47
2018-04-13T03:11:30.421Z,231.40
2018-04-13T03:14:04.081Z,227.30
2018-04-13T03:16:38.390Z,219.77
2018-04-13T03:19:06.016Z,210.17
2018-04-13T03:21:33.571Z,198.60
2018-04-13T03:24:06.766Z,182.60
2018-04-13T03:26:40.172Z,192.50
2018-04-13T03:29:13.747Z,212.80
2018-04-13T03:31:41.267Z,204.03
2018-04-13T03:34:15.477Z,212.83
2018-04-13T03:36:43.776Z,220.20
2018-04-13T03:39:11.316Z,205.23
2018-04-13T03:41:45.667Z,193.00
2018-04-13T03:44:13.244Z,199.50
2018-04-13T03:46:40.778Z,197.63
2018-04-13T03:49:14.280Z,235.57
2018-04-13T03:51:41.811Z,228.17
2018-04-13T03:54:10.128Z,197.97
2018-04-13T03:56:38.056Z,194.73
2018-04-13T03:59:11.984Z,301.50
2018-04-13T04:01:45.230Z,361.37
2018-04-13T04:04:18.514Z,409.57
2018-04-13T04:06:51.934Z,432.73
2018-04-13T04:09:20.251Z,442.97
2018-04-13T04:11:53.875Z,294.33
2018-04-13T04:14:21.414Z,238.33
2018-04-13T04:16:48.929Z,248.80
2018-04-13T04:19:23.491Z,366.57
2018-04-13T04:22:08.741Z,411.70
2018-04-13T04:24:54.766Z,400.80
2018-04-13T04:27:22.329Z,346.53
2018-04-13T04:29:49.884Z,268.53
2018-04-13T04:32:17.439Z,223.33
2018-04-13T04:34:44.971Z,302.30
2018-04-13T04:37:12.551Z,340.70
2018-04-13T04:39:45.999Z,460.60
2018-04-13T04:42:20.261Z,377.77
2018-04-13T04:44:47.918Z,302.40
2018-04-13T04:47:15.438Z,330.20
2018-04-13T04:49:49.714Z,439.57
2018-04-13T04:52:23.155Z,477.63
2018-04-13T04:54:51.476Z,464.10
2018-04-13T04:57:24.879Z,515.30
2018-04-13T04:59:52.437Z,509.57
2018-04-13T05:02:19.973Z,531.13
2018-04-13T05:04:53.515Z,518.40
2018-04-13T05:07:26.990Z,518.63
2018-04-13T05:10:00.135Z,490.30
2018-04-13T05:12:28.460Z,508.80
2018-04-13T05:14:56.004Z,495.27
2018-04-13T05:17:29.311Z,489.60
2018-04-13T05:19:56.830Z,470.60
2018-04-13T05:22:25.126Z,474.50
2018-04-13T05:24:52.697Z,395.60
2018-04-13T05:27:20.254Z,406.40
2018-04-13T05:29:47.772Z,398.37
2018-04-13T05:32:27.901Z,343.00
2018-04-13T05:35:01.128Z,275.97
2018-04-13T05:37:28.681Z,286.17
2018-04-13T05:39:56.998Z,266.07
2018-04-13T05:42:24.532Z,247.00
2018-04-13T05:44:58.305Z,261.67
2018-04-13T05:47:26.604Z,234.60
2018-04-13T05:49:54.140Z,236.93
2018-04-13T05:52:28.358Z,266.77
2018-04-13T05:54:56.684Z,216.60
2018-04-13T05:57:24.371Z,227.97
2018-04-13T05:59:58.228Z,240.53
2018-04-13T06:02:25.801Z,223.57
2018-04-13T06:04:59.414Z,237.13
2018-04-13T06:07:32.897Z,245.17
2018-04-13T06:10:00.458Z,287.37
2018-04-13T06:12:28.014Z,286.80
2018-04-13T06:14:55.548Z,310.97
2018-04-13T06:17:23.950Z,303.07
2018-04-13T06:19:51.505Z,291.57
2018-04-13T06:22:19.036Z,288.53
2018-04-13T06:24:47.373Z,283.43
2018-04-13T06:27:20.666Z,284.43
2018-04-13T06:29:48.225Z,267.30
2018-04-13T06:32:15.751Z,271.20
2018-04-13T06:34:48.995Z,271.13
2018-04-13T06:37:16.552Z,259.60
2018-04-13T06:39:44.181Z,264.67
2018-04-13T06:42:11.834Z,246.23
2018-04-13T06:44:39.375Z,233.00
2018-04-13T06:47:12.973Z,228.90
2018-04-13T06:49:40.539Z,222.00
2018-04-13T06:52:08.076Z,220.33
2018-04-13T06:54:36.740Z,204.90
2018-04-13T06:57:04.350Z,206.60
2018-04-13T06:59:31.892Z,218.63
2018-04-13T07:02:05.425Z,205.60
2018-04-13T07:04:32.970Z,193.97
2018-04-13T07:07:00.506Z,188.20
2018-04-13T07:09:28.085Z,192.47
2018-04-13T07:11:55.619Z,175.70
2018-04-13T07:14:23.198Z,175.60
2018-04-13T07:16:50.750Z,174.03
2018-04-13T07:19:18.351Z,184.97
2018-04-13T07:21:51.863Z,182.10
2018-04-13T07:24:19.427Z,184.63
2018-04-13T07:26:52.873Z,176.27
2018-04-13T07:29:20.394Z,183.70
2018-04-13T07:31:48.760Z,180.73
2018-04-13T07:34:22.629Z,165.10
2018-04-13T07:36:49.674Z,171.30
2018-04-13T07:39:17.283Z,169.77
2018-04-13T07:41:51.189Z,161.43
2018-04-13T07:44:25.076Z,168.20
2018-04-13T07:46:54.522Z,175.17
2018-04-13T07:49:27.552Z,165.77
2018-04-13T07:51:55.501Z,177.13
2018-04-13T07:54:22.747Z,173.87
2018-04-13T07:56:56.366Z,175.50
2018-04-13T07:59:23.915Z,164.10
2018-04-13T08:01:51.479Z,175.00
2018-04-13T08:04:24.931Z,166.40
2018-04-13T08:06:59.054Z,167.70
2018-04-13T08:09:26.643Z,164.50
2018-04-13T08:11:54.420Z,164.90
2018-04-13T08:14:21.744Z,151.63
2018-04-13T08:16:54.969Z,156.83
2018-04-13T08:19:28.260Z,149.57
2018-04-13T08:22:01.503Z,150.60
2018-04-13T08:24:29.095Z,147.80
2018-04-13T08:26:56.656Z,156.03
2018-04-13T08:29:24.201Z,151.03
2018-04-13T08:31:51.729Z,146.63
2018-04-13T08:34:25.051Z,139.97
2018-04-13T08:36:52.612Z,135.53
2018-04-13T08:39:20.162Z,140.57
2018-04-13T08:41:47.754Z,135.23
2018-04-13T08:44:26.889Z,145.40
2018-04-13T08:46:54.462Z,131.67
2018-04-13T08:49:27.579Z,120.23
2018-04-13T08:52:01.673Z,123.83
2018-04-13T08:54:29.210Z,110.63
2018-04-13T08:56:56.734Z,120.13
2018-04-13T08:59:24.366Z,108.30
2018-04-13T09:01:58.508Z,117.83
2018-04-13T09:04:32.429Z,105.03
2018-04-13T09:07:05.706Z,103.80
2018-04-13T09:09:33.264Z,88.07
2018-04-13T09:12:00.781Z,85.17
2018-04-13T09:14:40.855Z,83.13
2018-04-13T09:17:08.443Z,88.50
2018-04-13T09:19:35.968Z,84.20
2018-04-13T09:22:09.505Z,85.43
2018-04-13T09:24:42.897Z,90.67
2018-04-13T09:27:22.022Z,88.97
2018-04-13T09:29:49.571Z,95.40
2018-04-13T09:32:17.137Z,79.53
2018-04-13T09:34:44.788Z,81.40
2018-04-13T09:37:12.301Z,76.90
2018-04-13T09:39:39.831Z,65.93
2018-04-13T09:42:07.488Z,62.53
2018-04-13T09:44:35.019Z,70.93
2018-04-13T09:47:02.539Z,73.07
2018-04-13T09:49:30.091Z,63.33
2018-04-13T09:52:03.405Z,54.53
2018-04-13T09:54:31.747Z,46.00
2018-04-13T09:56:59.292Z,56.43
2018-04-13T09:59:32.450Z,78.57
2018-04-13T10:02:05.784Z,58.80
2018-04-13T10:04:41.197Z,56.73
2018-04-13T10:07:08.737Z,57.27
2018-04-13T10:09:36.325Z,48.23
2018-04-13T10:12:03.885Z,53.50
2018-04-13T10:14:37.452Z,47.47
2018-04-13T10:17:05.867Z,43.63
2018-04-13T10:19:33.389Z,41.73
2018-04-13T10:22:01.720Z,50.70
2018-04-13T10:24:35.407Z,40.23
2018-04-13T10:27:08.685Z,42.97
2018-04-13T10:29:36.233Z,48.20
2018-04-13T10:32:09.651Z,43.73
2018-04-13T10:34:37.517Z,41.53
2018-04-13T10:37:16.492Z,40.10
2018-04-13T10:39:44.807Z,41.60
2018-04-13T10:42:18.102Z,38.43
2018-04-13T10:44:51.587Z,38.37
2018-04-13T10:47:19.101Z,30.90
2018-04-13T10:49:46.711Z,33.33
2018-04-13T10:52:14.274Z,36.30
2018-04-13T10:54:41.793Z,40.67
2018-04-13T10:57:10.081Z,42.10
2018-04-13T10:59:38.384Z,36.00
2018-04-13T11:02:11.863Z,49.77
2018-04-13T11:04:39.448Z,41.23
2018-04-13T11:07:06.972Z,34.97
2018-04-13T11:09:41.206Z,40.10
2018-04-13T11:12:08.725Z,37.40
2018-04-13T11:14:36.248Z,42.40
2018-04-13T11:17:03.893Z,41.57
2018-04-13T11:19:43.485Z,39.90
2018-04-13T11:22:11.904Z,29.70
2018-04-13T11:24:39.433Z,40.40
2018-04-13T11:27:07.719Z,44.63
2018-04-13T11:29:36.052Z,38.20
2018-04-13T11:32:05.204Z,38.00
2018-04-13T11:34:38.639Z,34.80
2018-04-13T11:37:11.932Z,27.07
2018-04-13T11:39:39.476Z,30.43
2018-04-13T11:42:06.991Z,34.10
2018-04-13T11:44:41.251Z,32.80
2018-04-13T11:47:08.784Z,33.47
2018-04-13T11:49:42.150Z,31.67
2018-04-13T11:52:10.439Z,29.73
2018-04-13T11:54:39.368Z,32.13
2018-04-13T11:57:06.948Z,22.97
2018-04-13T11:59:40.448Z,21.87
2018-04-13T12:02:13.708Z,18.73
2018-04-13T12:04:41.241Z,14.37
2018-04-13T12:07:08.820Z,23.60
2018-04-13T12:09:36.388Z,17.20
2018-04-13T12:12:03.962Z,16.37
2018-04-13T12:14:31.532Z,16.87
2018-04-13T12:16:59.171Z,14.90
2018-04-13T12:19:26.690Z,17.90
2018-04-13T12:21:55.007Z,16.00
2018-04-13T12:24:22.567Z,18.73
2018-04-13T12:26:50.126Z,15.27
2018-04-13T12:29:17.645Z,17.37
2018-04-13T12:31:45.966Z,17.47
2018-04-13T12:34:13.502Z,15.80
2018-04-13T12:36:41.038Z,24.37
2018-04-13T12:39:09.459Z,22.97
2018-04-13T12:41:36.989Z,17.10
2018-04-13T12:44:04.520Z,19.90
2018-04-13T12:46:32.855Z,16.37
2018-04-13T12:49:00.392Z,17.83
2018-04-13T12:51:27.952Z,18.33
2018-04-13T12:53:55.519Z,15.70
2018-04-13T12:56:23.120Z,19.03
2018-04-13T12:58:50.676Z,15.63
2018-04-13T13:01:18.294Z,13.20
2018-04-13T13:03:45.825Z,16.03
2018-04-13T13:06:14.103Z,14.70
2018-04-13T13:08:42.538Z,14.57
2018-04-13T13:11:10.321Z,14.53
2018-04-13T13:13:37.925Z,18.17
2018-04-13T13:16:05.483Z,18.57
2018-04-13T13:18:33.013Z,16.87
2018-04-13T13:21:01.316Z,20.53
2018-04-13T13:23:28.892Z,17.80
2018-04-13T13:25:56.435Z,24.10
2018-04-13T13:28:23.941Z,19.67
2018-04-13T13:30:51.503Z,21.67
2018-04-13T13:33:19.040Z,22.60
2018-04-13T13:35:46.581Z,25.00
2018-04-13T13:38:14.153Z,20.43
2018-04-13T13:40:41.689Z,25.83
2018-04-13T13:43:09.211Z,20.00
2018-04-13T13:45:37.930Z,24.10
2018-04-13T13:48:05.501Z,23.63
2018-04-13T13:50:33.038Z,24.10
2018-04-13T13:53:00.623Z,22.57
2018-04-13T13:55:28.155Z,23.87
2018-04-13T13:57:55.674Z,22.87
2018-04-13T14:00:23.247Z,24.37
2018-04-13T14:02:51.564Z,28.97
2018-04-13T14:05:19.103Z,24.13
2018-04-13T14:07:46.658Z,27.47
2018-04-13T14:10:14.241Z,23.97
2018-04-13T14:12:41.756Z,25.43
2018-04-13T14:15:10.074Z,24.93
2018-04-13T14:17:37.635Z,24.97
2018-04-13T14:20:05.160Z,25.57
2018-04-13T14:22:32.729Z,29.30
2018-04-13T14:25:00.246Z,28.57
2018-04-13T14:27:27.876Z,26.63
2018-04-13T14:29:55.440Z,27.70
2018-04-13T14:32:22.979Z,29.13
2018-04-13T14:34:50.521Z,26.57
2018-04-13T14:37:18.096Z,22.60
2018-04-13T14:39:45.656Z,24.60
2018-04-13T14:42:13.223Z,21.73
2018-04-13T14:44:40.832Z,23.90
2018-04-13T14:47:08.454Z,18.67
2018-04-13T14:49:35.992Z,21.10
2018-04-13T14:52:03.653Z,24.50
2018-04-13T14:54:31.232Z,21.27
2018-04-13T14:56:58.781Z,16.07
2018-04-13T14:59:26.327Z,19.53
2018-04-13T15:01:53.883Z,16.40
2018-04-13T15:04:21.408Z,16.20
2018-04-13T15:06:49.721Z,16.03
2018-04-13T15:09:17.261Z,14.80
2018-04-13T15:11:44.786Z,14.90
2018-04-13T15:14:12.422Z,15.93
2018-04-13T15:16:39.941Z,13.63
2018-04-13T15:19:07.468Z,19.70
2018-04-13T15:21:35.083Z,18.00
2018-04-13T15:24:02.645Z,18.67
2018-04-13T15:26:30.179Z,17.57
2018-04-13T15:28:57.721Z,19.53
2018-04-13T15:31:26.001Z,19.50
2018-04-13T15:33:54.300Z,18.07
2018-04-13T15:36:21.976Z,17.30
2018-04-13T15:38:49.539Z,21.53
2018-04-13T15:41:17.088Z,26.63
2018-04-13T15:43:44.761Z,18.53
2018-04-13T15:46:12.295Z,21.27
2018-04-13T15:48:39.872Z,19.23
2018-04-13T15:51:07.418Z,23.47
2018-04-13T15:53:34.934Z,28.90
2018-04-13T15:56:03.254Z,24.10
2018-04-13T15:58:30.833Z,23.43
2018-04-13T16:00:58.362Z,24.87
2018-04-13T16:03:25.881Z,23.57
2018-04-13T16:05:53.493Z,25.17
2018-04-13T16:08:21.059Z,26.17
2018-04-13T16:10:48.602Z,24.47
2018-04-13T16:13:16.142Z,23.50
2018-04-13T16:15:43.760Z,26.73
2018-04-13T16:18:11.277Z,27.80
2018-04-13T16:20:39.348Z,28.77
2018-04-13T16:23:06.897Z,26.23
2018-04-13T16:25:34.427Z,27.63
2018-04-13T16:28:02.754Z,30.60
2018-04-13T16:30:30.320Z,30.53
2018-04-13T16:32:57.862Z,32.50
2018-04-13T16:35:25.436Z,34.10
2018-04-13T16:37:52.959Z,34.67
2018-04-13T16:40:20.477Z,35.50
2018-04-13T16:42:48.095Z,38.17
2018-04-13T16:45:15.670Z,43.40
2018-04-13T16:47:43.186Z,34.93
2018-04-13T16:50:11.589Z,40.37
2018-04-13T16:52:39.455Z,43.40
2018-04-13T16:55:06.981Z,43.90
2018-04-13T16:57:35.293Z,47.17
2018-04-13T17:00:02.823Z,41.83
2018-04-13T17:02:31.119Z,49.67
2018-04-13T17:04:58.662Z,47.97
2018-04-13T17:07:26.959Z,45.83
2018-04-13T17:09:54.482Z,53.57
2018-04-13T17:12:22.816Z,48.67
2018-04-13T17:14:50.358Z,51.53
2018-04-13T17:17:17.887Z,54.80
2018-04-13T17:19:45.468Z,53.43
2018-04-13T17:22:13.036Z,57.27
2018-04-13T17:24:40.596Z,55.00
2018-04-13T17:27:08.146Z,58.20
2018-04-13T17:29:35.712Z,61.43
2018-04-13T17:32:03.571Z,62.07
2018-04-13T17:34:31.110Z,58.03
2018-04-13T17:36:58.653Z,68.70
2018-04-13T17:39:26.959Z,71.03
2018-04-13T17:41:54.530Z,70.03
2018-04-13T17:44:22.087Z,73.40
2018-04-13T17:46:49.601Z,76.00
2018-04-13T17:49:18.039Z,81.93
2018-04-13T17:51:45.604Z,78.00
2018-04-13T17:54:13.125Z,88.13
2018-04-13T17:56:40.711Z,88.77
2018-04-13T17:59:08.259Z,100.40
2018-04-13T18:01:35.829Z,106.97
2018-04-13T18:04:03.467Z,115.90
2018-04-13T18:06:31.038Z,111.40
2018-04-13T18:08:58.596Z,105.80
2018-04-13T18:11:26.158Z,113.17
2018-04-13T18:13:53.702Z,126.07
2018-04-13T18:16:21.237Z,115.47
2018-04-13T18:18:49.672Z,117.70
2018-04-13T18:21:17.321Z,117.87
2018-04-13T18:23:44.864Z,120.63
2018-04-13T18:26:12.435Z,125.80
2018-04-13T18:28:39.973Z,127.40
2018-04-13T18:31:07.498Z,125.70
2018-04-13T18:33:35.815Z,114.30
2018-04-13T18:36:03.348Z,112.57
2018-04-13T18:38:31.660Z,101.57
2018-04-13T18:40:59.226Z,111.40
2018-04-13T18:43:27.190Z,99.97
2018-04-13T18:45:54.716Z,103.93
2018-04-13T18:48:22.501Z,108.90
2018-04-13T18:50:50.096Z,104.17
2018-04-13T18:53:19.132Z,103.47
2018-04-13T18:55:46.719Z,101.23
2018-04-13T18:58:14.297Z,102.57
2018-04-13T19:00:41.837Z,103.93
2018-04-13T19:03:09.411Z,99.00
2018-04-13T19:05:36.953Z,98.60
2018-04-13T19:08:04.516Z,97.57
2018-04-13T19:10:32.165Z,98.47
2018-04-13T19:12:59.681Z,97.70
2018-04-13T19:15:27.970Z,97.13
2018-04-13T19:17:56.398Z,95.17
2018-04-13T19:20:23.951Z,93.13
2018-04-13T19:22:51.463Z,96.50
2018-04-13T19:25:19.786Z,102.83
2018-04-13T19:27:47.313Z,98.67
2018-04-13T19:30:14.890Z,88.90
2018-04-13T19:32:42.446Z,74.57
2018-04-13T19:35:09.986Z,86.73
2018-04-13T19:37:37.521Z,93.80
2018-04-13T19:40:05.847Z,83.87
2018-04-13T19:42:33.396Z,95.97
2018-04-13T19:45:00.926Z,94.00
2018-04-13T19:47:29.444Z,91.20
2018-04-13T19:49:56.971Z,92.20
2018-04-13T19:52:24.501Z,89.60
2018-04-13T19:54:52.107Z,90.53
2018-04-13T19:57:19.667Z,94.70
2018-04-13T19:59:47.333Z,90.80
2018-04-13T20:02:14.921Z,93.80
2018-04-13T20:04:42.458Z,84.50
2018-04-13T20:07:10.112Z,86.43
2018-04-13T20:09:37.667Z,85.93
2018-04-13T20:12:05.190Z,83.37
2018-04-13T20:14:33.519Z,79.20
2018-04-13T20:17:01.431Z,90.40
2018-04-13T20:19:29.760Z,81.13
2018-04-13T20:21:57.326Z,81.00
2018-04-13T20:24:24.885Z,85.63
2018-04-13T20:26:52.470Z,90.23
2018-04-13T20:29:21.096Z,84.83
2018-04-13T20:31:48.681Z,84.10
2018-04-13T20:34:16.211Z,80.17
2018-04-13T20:36:43.751Z,82.90
2018-04-13T20:39:12.164Z,91.37
2018-04-13T20:41:39.703Z,96.57
2018-04-13T20:44:07.284Z,86.87
2018-04-13T20:46:34.955Z,93.80
2018-04-13T20:49:02.503Z,84.00
2018-04-13T20:51:30.018Z,85.47
2018-04-13T20:53:58.442Z,94.80
2018-04-13T20:56:25.962Z,83.30
2018-04-13T20:58:54.248Z,99.23
2018-04-13T21:01:21.813Z,84.33
2018-04-13T21:03:49.337Z,96.10
2018-04-13T21:06:16.966Z,90.47
2018-04-13T21:08:44.623Z,94.17
2018-04-13T21:11:12.150Z,87.80
2018-04-13T21:13:39.741Z,92.80
2018-04-13T21:16:07.282Z,98.10
2018-04-13T21:18:34.807Z,96.87
2018-04-13T21:21:03.089Z,91.20
2018-04-13T21:23:31.493Z,88.77
2018-04-13T21:25:59.046Z,89.50
2018-04-13T21:28:26.584Z,90.60
2018-04-13T21:30:54.916Z,95.80
2018-04-13T21:33:22.563Z,99.67
2018-04-13T21:35:50.097Z,90.20
2018-04-13T21:38:17.650Z,99.17
2018-04-13T21:40:45.250Z,108.03
2018-04-13T21:43:12.796Z,97.40
2018-04-13T21:45:40.441Z,98.33
2018-04-13T21:48:07.969Z,96.00
2018-04-13T21:50:36.259Z,98.07
2018-04-13T21:53:03.843Z,106.13
2018-04-13T21:55:31.421Z,108.50
2018-04-13T21:57:58.955Z,99.27
2018-04-13T22:00:26.612Z,113.00
2018-04-13T22:02:54.144Z,110.27
2018-04-13T22:05:22.452Z,117.10
2018-04-13T22:07:50.039Z,109.87
2018-04-13T22:10:17.669Z,111.20
2018-04-13T22:12:57.193Z,119.23
2018-04-13T22:15:26.495Z,117.80
2018-04-13T22:17:54.028Z,115.17
2018-04-13T22:20:22.347Z,111.80
2018-04-13T22:22:49.897Z,116.23
2018-04-13T22:25:17.462Z,113.10
2018-04-13T22:27:45.032Z,130.07
2018-04-13T22:30:12.557Z,123.40
2018-04-13T22:32:40.352Z,124.20
2018-04-13T22:35:07.907Z,132.90
2018-04-13T22:37:35.461Z,132.30
2018-04-13T22:40:02.985Z,119.57
2018-04-13T22:42:31.485Z,122.10
2018-04-13T22:44:59.020Z,121.23
2018-04-13T22:47:27.325Z,134.07
2018-04-13T22:49:54.995Z,129.27
2018-04-13T22:52:22.649Z,129.53
2018-04-13T22:54:50.624Z,135.53
2018-04-13T22:57:18.167Z,139.13
2018-04-13T22:59:45.677Z,138.37
2018-04-13T23:02:13.196Z,152.33
2018-04-13T23:04:40.757Z,149.83
2018-04-13T23:07:08.277Z,150.97
2018-04-13T23:09:36.574Z,142.47
2018-04-13T23:12:04.129Z,138.50
2018-04-13T23:14:31.701Z,137.10
2018-04-13T23:16:59.228Z,137.30
2018-04-13T23:19:27.562Z,153.00
2018-04-13T23:21:55.102Z,140.17
2018-04-13T23:24:22.632Z,144.50
2018-04-13T23:26:50.189Z,149.53
2018-04-13T23:29:17.707Z,138.50
2018-04-13T23:31:45.217Z,151.10
2018-04-13T23:34:12.790Z,153.83
2018-04-13T23:36:40.311Z,148.53
2018-04-13T23:39:08.635Z,155.37
2018-04-13T23:41:36.202Z,157.67
2018-04-13T23:44:03.750Z,154.17
2018-04-13T23:46:31.413Z,162.43
2018-04-13T23:48:59.072Z,156.37
2018-04-13T23:51:26.585Z,159.67
2018-04-13T23:53:54.896Z,159.23
2018-04-13T23:56:22.468Z,141.07
2018-04-13T23:58:49.995Z,153.70
